sensor_id;sensor_type;location;lat;lon;timestamp;P1;durP1;ratioP1;P2;durP2;ratioP2
51901;SDS011;37929;53.218;6.548;2023-05-15T00:01:17;36.03;;;19.70;;
51901;SDS011;37929;53.218;6.548;2023-05-15T00:03:42;35.58;;;20.20;;
51901;SDS011;37929;53.218;6.548;2023-05-15T00:06:08;32.45;;;19.65;;
51901;SDS011;37929;53.218;6.548;2023-05-15T00:08:34;38.88;;;21.20;;
51901;SDS011;37929;53.218;6.548;2023-05-15T00:11:00;38.75;;;20.20;;
51901;SDS011;37929;53.218;6.548;2023-05-15T00:13:25;38.30;;;19.98;;
51901;SDS011;37929;53.218;6.548;2023-05-15T00:15:51;34.92;;;19.95;;
51901;SDS011;37929;53.218;6.548;2023-05-15T00:18:17;35.45;;;19.48;;
51901;SDS011;37929;53.218;6.548;2023-05-15T00:20:42;35.13;;;19.92;;
51901;SDS011;37929;53.218;6.548;2023-05-15T00:23:08;33.95;;;19.58;;
51901;SDS011;37929;53.218;6.548;2023-05-15T00:25:34;33.25;;;19.42;;
51901;SDS011;37929;53.218;6.548;2023-05-15T00:28:00;33.28;;;18.40;;
51901;SDS011;37929;53.218;6.548;2023-05-15T00:30:26;35.55;;;17.83;;
51901;SDS011;37929;53.218;6.548;2023-05-15T00:32:52;38.22;;;20.38;;
51901;SDS011;37929;53.218;6.548;2023-05-15T00:35:18;34.03;;;16.92;;
51901;SDS011;37929;53.218;6.548;2023-05-15T00:37:43;33.78;;;18.80;;
51901;SDS011;37929;53.218;6.548;2023-05-15T00:40:09;30.15;;;17.35;;
51901;SDS011;37929;53.218;6.548;2023-05-15T00:42:42;32.28;;;17.60;;
51901;SDS011;37929;53.218;6.548;2023-05-15T00:45:10;33.10;;;18.10;;
51901;SDS011;37929;53.218;6.548;2023-05-15T00:47:39;30.23;;;17.52;;
51901;SDS011;37929;53.218;6.548;2023-05-15T00:50:09;33.97;;;19.52;;
51901;SDS011;37929;53.218;6.548;2023-05-15T00:52:35;33.15;;;18.80;;
51901;SDS011;37929;53.218;6.548;2023-05-15T00:55:02;32.88;;;18.05;;
51901;SDS011;37929;53.218;6.548;2023-05-15T00:57:30;31.98;;;18.77;;
51901;SDS011;37929;53.218;6.548;2023-05-15T00:59:56;32.55;;;18.63;;
51901;SDS011;37929;53.218;6.548;2023-05-15T01:02:25;34.75;;;19.35;;
51901;SDS011;37929;53.218;6.548;2023-05-15T01:04:51;34.03;;;19.35;;
51901;SDS011;37929;53.218;6.548;2023-05-15T01:07:17;33.65;;;19.75;;
51901;SDS011;37929;53.218;6.548;2023-05-15T01:09:42;35.85;;;18.88;;
51901;SDS011;37929;53.218;6.548;2023-05-15T01:12:11;30.73;;;18.10;;
51901;SDS011;37929;53.218;6.548;2023-05-15T01:14:40;33.08;;;18.42;;
51901;SDS011;37929;53.218;6.548;2023-05-15T01:17:06;32.92;;;18.55;;
51901;SDS011;37929;53.218;6.548;2023-05-15T01:19:32;31.52;;;18.50;;
51901;SDS011;37929;53.218;6.548;2023-05-15T01:22:23;33.22;;;17.73;;
51901;SDS011;37929;53.218;6.548;2023-05-15T01:28:02;31.50;;;17.77;;
51901;SDS011;37929;53.218;6.548;2023-05-15T01:30:34;37.88;;;19.67;;
51901;SDS011;37929;53.218;6.548;2023-05-15T01:33:07;36.00;;;20.75;;
51901;SDS011;37929;53.218;6.548;2023-05-15T01:38:33;36.22;;;20.42;;
51901;SDS011;37929;53.218;6.548;2023-05-15T01:43:38;36.92;;;19.73;;
51901;SDS011;37929;53.218;6.548;2023-05-15T01:46:08;38.60;;;20.67;;
51901;SDS011;37929;53.218;6.548;2023-05-15T01:48:36;32.60;;;18.33;;
51901;SDS011;37929;53.218;6.548;2023-05-15T01:51:04;37.08;;;19.90;;
51901;SDS011;37929;53.218;6.548;2023-05-15T01:53:31;35.15;;;19.20;;
51901;SDS011;37929;53.218;6.548;2023-05-15T01:55:59;31.33;;;18.52;;
51901;SDS011;37929;53.218;6.548;2023-05-15T01:58:27;34.90;;;19.10;;
51901;SDS011;37929;53.218;6.548;2023-05-15T02:00:54;40.58;;;21.17;;
51901;SDS011;37929;53.218;6.548;2023-05-15T02:03:21;39.83;;;20.83;;
51901;SDS011;37929;53.218;6.548;2023-05-15T02:05:47;33.20;;;18.33;;
51901;SDS011;37929;53.218;6.548;2023-05-15T02:08:14;38.08;;;20.80;;
51901;SDS011;37929;53.218;6.548;2023-05-15T02:10:40;34.80;;;20.52;;
51901;SDS011;37929;53.218;6.548;2023-05-15T02:13:08;38.40;;;20.42;;
51901;SDS011;37929;53.218;6.548;2023-05-15T02:15:34;33.25;;;19.48;;
51901;SDS011;37929;53.218;6.548;2023-05-15T02:18:00;38.67;;;19.88;;
51901;SDS011;37929;53.218;6.548;2023-05-15T02:20:26;35.58;;;20.40;;
51901;SDS011;37929;53.218;6.548;2023-05-15T02:22:52;34.70;;;19.15;;
51901;SDS011;37929;53.218;6.548;2023-05-15T02:25:18;35.55;;;19.45;;
51901;SDS011;37929;53.218;6.548;2023-05-15T02:27:56;36.65;;;19.85;;
51901;SDS011;37929;53.218;6.548;2023-05-15T02:33:39;34.42;;;19.33;;
51901;SDS011;37929;53.218;6.548;2023-05-15T02:36:07;36.42;;;19.25;;
51901;SDS011;37929;53.218;6.548;2023-05-15T02:38:48;32.80;;;18.75;;
51901;SDS011;37929;53.218;6.548;2023-05-15T02:41:17;33.50;;;17.90;;
51901;SDS011;37929;53.218;6.548;2023-05-15T02:43:43;32.78;;;18.83;;
51901;SDS011;37929;53.218;6.548;2023-05-15T02:46:10;34.70;;;18.38;;
51901;SDS011;37929;53.218;6.548;2023-05-15T02:48:38;30.65;;;16.50;;
51901;SDS011;37929;53.218;6.548;2023-05-15T02:51:06;34.42;;;18.10;;
51901;SDS011;37929;53.218;6.548;2023-05-15T02:53:32;32.45;;;17.90;;
51901;SDS011;37929;53.218;6.548;2023-05-15T02:56:02;30.42;;;17.35;;
51901;SDS011;37929;53.218;6.548;2023-05-15T02:58:28;35.25;;;18.67;;
51901;SDS011;37929;53.218;6.548;2023-05-15T03:00:54;33.35;;;17.60;;
51901;SDS011;37929;53.218;6.548;2023-05-15T03:03:20;32.90;;;18.48;;
51901;SDS011;37929;53.218;6.548;2023-05-15T03:05:46;32.60;;;18.25;;
51901;SDS011;37929;53.218;6.548;2023-05-15T03:08:12;40.33;;;20.85;;
51901;SDS011;37929;53.218;6.548;2023-05-15T03:10:38;32.72;;;18.10;;
51901;SDS011;37929;53.218;6.548;2023-05-15T03:13:04;36.70;;;19.30;;
51901;SDS011;37929;53.218;6.548;2023-05-15T03:15:30;36.42;;;17.73;;
51901;SDS011;37929;53.218;6.548;2023-05-15T03:17:56;30.45;;;16.88;;
51901;SDS011;37929;53.218;6.548;2023-05-15T03:20:21;32.65;;;17.30;;
51901;SDS011;37929;53.218;6.548;2023-05-15T03:22:47;31.33;;;17.98;;
51901;SDS011;37929;53.218;6.548;2023-05-15T03:25:13;29.02;;;16.42;;
51901;SDS011;37929;53.218;6.548;2023-05-15T03:27:39;27.75;;;15.68;;
51901;SDS011;37929;53.218;6.548;2023-05-15T03:30:05;29.90;;;16.33;;
51901;SDS011;37929;53.218;6.548;2023-05-15T03:32:32;31.98;;;16.55;;
51901;SDS011;37929;53.218;6.548;2023-05-15T03:34:57;34.58;;;17.33;;
51901;SDS011;37929;53.218;6.548;2023-05-15T03:37:23;31.45;;;16.98;;
51901;SDS011;37929;53.218;6.548;2023-05-15T03:39:49;30.88;;;14.98;;
51901;SDS011;37929;53.218;6.548;2023-05-15T03:42:15;27.95;;;15.38;;
51901;SDS011;37929;53.218;6.548;2023-05-15T03:44:46;24.40;;;14.77;;
51901;SDS011;37929;53.218;6.548;2023-05-15T03:47:12;23.80;;;13.65;;
51901;SDS011;37929;53.218;6.548;2023-05-15T03:49:37;24.55;;;14.07;;
51901;SDS011;37929;53.218;6.548;2023-05-15T03:52:03;23.48;;;13.98;;
51901;SDS011;37929;53.218;6.548;2023-05-15T03:54:29;21.95;;;13.50;;
51901;SDS011;37929;53.218;6.548;2023-05-15T03:56:56;23.20;;;13.45;;
51901;SDS011;37929;53.218;6.548;2023-05-15T03:59:22;23.05;;;14.18;;
51901;SDS011;37929;53.218;6.548;2023-05-15T04:01:48;21.25;;;13.68;;
51901;SDS011;37929;53.218;6.548;2023-05-15T04:04:14;25.05;;;14.13;;
51901;SDS011;37929;53.218;6.548;2023-05-15T04:06:39;24.23;;;14.20;;
51901;SDS011;37929;53.218;6.548;2023-05-15T04:09:05;24.75;;;14.98;;
51901;SDS011;37929;53.218;6.548;2023-05-15T04:11:31;26.42;;;14.25;;
51901;SDS011;37929;53.218;6.548;2023-05-15T04:13:58;22.25;;;14.27;;
51901;SDS011;37929;53.218;6.548;2023-05-15T04:16:24;23.48;;;14.30;;
51901;SDS011;37929;53.218;6.548;2023-05-15T04:18:50;24.75;;;14.65;;
51901;SDS011;37929;53.218;6.548;2023-05-15T04:21:16;23.45;;;14.18;;
51901;SDS011;37929;53.218;6.548;2023-05-15T04:23:42;24.00;;;14.82;;
51901;SDS011;37929;53.218;6.548;2023-05-15T04:26:07;24.63;;;14.60;;
51901;SDS011;37929;53.218;6.548;2023-05-15T04:28:33;22.50;;;14.35;;
51901;SDS011;37929;53.218;6.548;2023-05-15T04:30:59;22.13;;;14.20;;
51901;SDS011;37929;53.218;6.548;2023-05-15T04:33:25;20.38;;;13.13;;
51901;SDS011;37929;53.218;6.548;2023-05-15T04:35:51;21.52;;;14.02;;
51901;SDS011;37929;53.218;6.548;2023-05-15T04:38:17;22.33;;;14.38;;
51901;SDS011;37929;53.218;6.548;2023-05-15T04:40:43;19.05;;;13.57;;
51901;SDS011;37929;53.218;6.548;2023-05-15T04:43:09;19.33;;;13.35;;
51901;SDS011;37929;53.218;6.548;2023-05-15T04:45:35;19.65;;;13.73;;
51901;SDS011;37929;53.218;6.548;2023-05-15T04:48:01;20.88;;;13.48;;
51901;SDS011;37929;53.218;6.548;2023-05-15T04:50:27;19.58;;;12.65;;
51901;SDS011;37929;53.218;6.548;2023-05-15T04:52:53;18.65;;;12.15;;
51901;SDS011;37929;53.218;6.548;2023-05-15T04:55:19;19.17;;;13.18;;
51901;SDS011;37929;53.218;6.548;2023-05-15T04:57:45;17.15;;;11.70;;
51901;SDS011;37929;53.218;6.548;2023-05-15T05:00:11;17.63;;;11.48;;
51901;SDS011;37929;53.218;6.548;2023-05-15T05:02:38;18.65;;;12.05;;
51901;SDS011;37929;53.218;6.548;2023-05-15T05:05:05;18.40;;;11.95;;
51901;SDS011;37929;53.218;6.548;2023-05-15T05:07:32;19.35;;;12.98;;
51901;SDS011;37929;53.218;6.548;2023-05-15T05:09:58;18.50;;;12.35;;
51901;SDS011;37929;53.218;6.548;2023-05-15T05:12:24;19.50;;;12.20;;
51901;SDS011;37929;53.218;6.548;2023-05-15T05:14:50;17.40;;;12.15;;
51901;SDS011;37929;53.218;6.548;2023-05-15T05:17:15;18.98;;;12.88;;
51901;SDS011;37929;53.218;6.548;2023-05-15T05:19:41;20.17;;;12.23;;
51901;SDS011;37929;53.218;6.548;2023-05-15T05:22:07;15.88;;;11.73;;
51901;SDS011;37929;53.218;6.548;2023-05-15T05:24:33;16.13;;;11.75;;
51901;SDS011;37929;53.218;6.548;2023-05-15T05:27:00;18.23;;;12.23;;
51901;SDS011;37929;53.218;6.548;2023-05-15T05:29:25;19.98;;;12.40;;
51901;SDS011;37929;53.218;6.548;2023-05-15T05:31:51;17.20;;;12.25;;
51901;SDS011;37929;53.218;6.548;2023-05-15T05:34:17;15.57;;;11.15;;
51901;SDS011;37929;53.218;6.548;2023-05-15T05:36:44;14.50;;;10.80;;
51901;SDS011;37929;53.218;6.548;2023-05-15T05:39:10;14.05;;;9.75;;
51901;SDS011;37929;53.218;6.548;2023-05-15T05:41:35;14.45;;;10.75;;
51901;SDS011;37929;53.218;6.548;2023-05-15T05:44:01;16.55;;;10.70;;
51901;SDS011;37929;53.218;6.548;2023-05-15T05:46:27;14.52;;;10.77;;
51901;SDS011;37929;53.218;6.548;2023-05-15T05:48:53;14.20;;;11.10;;
51901;SDS011;37929;53.218;6.548;2023-05-15T05:51:19;15.35;;;11.25;;
51901;SDS011;37929;53.218;6.548;2023-05-15T05:53:45;16.33;;;11.10;;
51901;SDS011;37929;53.218;6.548;2023-05-15T05:56:10;16.55;;;11.77;;
51901;SDS011;37929;53.218;6.548;2023-05-15T05:58:36;18.05;;;12.10;;
51901;SDS011;37929;53.218;6.548;2023-05-15T06:01:02;19.35;;;12.43;;
51901;SDS011;37929;53.218;6.548;2023-05-15T06:03:29;17.42;;;12.18;;
51901;SDS011;37929;53.218;6.548;2023-05-15T06:05:55;17.05;;;11.93;;
51901;SDS011;37929;53.218;6.548;2023-05-15T06:08:21;15.88;;;11.93;;
51901;SDS011;37929;53.218;6.548;2023-05-15T06:10:47;21.52;;;12.55;;
51901;SDS011;37929;53.218;6.548;2023-05-15T06:13:13;15.88;;;11.35;;
51901;SDS011;37929;53.218;6.548;2023-05-15T06:15:39;15.20;;;11.02;;
51901;SDS011;37929;53.218;6.548;2023-05-15T06:18:05;16.60;;;11.20;;
51901;SDS011;37929;53.218;6.548;2023-05-15T06:20:32;13.30;;;9.95;;
51901;SDS011;37929;53.218;6.548;2023-05-15T06:22:58;14.27;;;9.95;;
51901;SDS011;37929;53.218;6.548;2023-05-15T06:25:23;16.88;;;10.23;;
51901;SDS011;37929;53.218;6.548;2023-05-15T06:27:50;15.00;;;10.88;;
51901;SDS011;37929;53.218;6.548;2023-05-15T06:30:15;14.93;;;10.57;;
51901;SDS011;37929;53.218;6.548;2023-05-15T06:32:41;13.35;;;9.85;;
51901;SDS011;37929;53.218;6.548;2023-05-15T06:35:10;13.02;;;9.93;;
51901;SDS011;37929;53.218;6.548;2023-05-15T06:37:35;15.43;;;10.10;;
51901;SDS011;37929;53.218;6.548;2023-05-15T06:40:02;13.63;;;9.02;;
51901;SDS011;37929;53.218;6.548;2023-05-15T06:42:28;13.43;;;8.98;;
51901;SDS011;37929;53.218;6.548;2023-05-15T06:45:00;13.00;;;8.80;;
51901;SDS011;37929;53.218;6.548;2023-05-15T06:47:25;11.68;;;8.25;;
51901;SDS011;37929;53.218;6.548;2023-05-15T06:49:52;11.38;;;8.90;;
51901;SDS011;37929;53.218;6.548;2023-05-15T06:52:19;14.88;;;8.98;;
51901;SDS011;37929;53.218;6.548;2023-05-15T06:54:45;13.63;;;9.35;;
51901;SDS011;37929;53.218;6.548;2023-05-15T06:57:11;11.45;;;9.07;;
51901;SDS011;37929;53.218;6.548;2023-05-15T06:59:37;13.10;;;8.98;;
51901;SDS011;37929;53.218;6.548;2023-05-15T07:02:05;9.75;;;7.97;;
51901;SDS011;37929;53.218;6.548;2023-05-15T07:04:31;12.73;;;9.23;;
51901;SDS011;37929;53.218;6.548;2023-05-15T07:06:57;12.05;;;8.60;;
51901;SDS011;37929;53.218;6.548;2023-05-15T07:09:23;11.23;;;8.45;;
51901;SDS011;37929;53.218;6.548;2023-05-15T07:11:49;10.30;;;7.75;;
51901;SDS011;37929;53.218;6.548;2023-05-15T07:14:15;12.52;;;8.90;;
51901;SDS011;37929;53.218;6.548;2023-05-15T07:16:40;11.65;;;8.63;;
51901;SDS011;37929;53.218;6.548;2023-05-15T07:19:07;11.02;;;8.10;;
51901;SDS011;37929;53.218;6.548;2023-05-15T07:21:33;11.05;;;8.30;;
51901;SDS011;37929;53.218;6.548;2023-05-15T07:23:59;12.27;;;8.82;;
51901;SDS011;37929;53.218;6.548;2023-05-15T07:26:25;10.52;;;7.78;;
51901;SDS011;37929;53.218;6.548;2023-05-15T07:28:51;11.45;;;7.65;;
51901;SDS011;37929;53.218;6.548;2023-05-15T07:31:16;12.75;;;8.05;;
51901;SDS011;37929;53.218;6.548;2023-05-15T07:33:42;10.73;;;8.13;;
51901;SDS011;37929;53.218;6.548;2023-05-15T07:36:08;12.07;;;7.82;;
51901;SDS011;37929;53.218;6.548;2023-05-15T07:38:34;10.18;;;7.80;;
51901;SDS011;37929;53.218;6.548;2023-05-15T07:41:00;10.55;;;7.47;;
51901;SDS011;37929;53.218;6.548;2023-05-15T07:43:26;10.07;;;7.90;;
51901;SDS011;37929;53.218;6.548;2023-05-15T07:45:51;10.02;;;7.82;;
51901;SDS011;37929;53.218;6.548;2023-05-15T07:48:18;10.77;;;7.50;;
51901;SDS011;37929;53.218;6.548;2023-05-15T07:50:44;10.85;;;7.72;;
51901;SDS011;37929;53.218;6.548;2023-05-15T07:53:11;10.55;;;7.85;;
51901;SDS011;37929;53.218;6.548;2023-05-15T07:55:40;9.50;;;7.38;;
51901;SDS011;37929;53.218;6.548;2023-05-15T07:58:07;10.60;;;7.40;;
51901;SDS011;37929;53.218;6.548;2023-05-15T08:00:32;12.05;;;7.65;;
51901;SDS011;37929;53.218;6.548;2023-05-15T08:02:58;10.18;;;7.95;;
51901;SDS011;37929;53.218;6.548;2023-05-15T08:05:27;11.25;;;8.60;;
51901;SDS011;37929;53.218;6.548;2023-05-15T08:07:54;10.32;;;7.38;;
51901;SDS011;37929;53.218;6.548;2023-05-15T08:10:20;9.98;;;7.50;;
51901;SDS011;37929;53.218;6.548;2023-05-15T08:12:46;10.68;;;8.13;;
51901;SDS011;37929;53.218;6.548;2023-05-15T08:15:15;10.60;;;7.68;;
51901;SDS011;37929;53.218;6.548;2023-05-15T08:17:41;10.10;;;7.88;;
51901;SDS011;37929;53.218;6.548;2023-05-15T08:20:07;11.52;;;7.75;;
51901;SDS011;37929;53.218;6.548;2023-05-15T08:22:34;11.10;;;7.50;;
51901;SDS011;37929;53.218;6.548;2023-05-15T08:24:59;9.80;;;7.97;;
51901;SDS011;37929;53.218;6.548;2023-05-15T08:27:27;8.40;;;7.15;;
51901;SDS011;37929;53.218;6.548;2023-05-15T08:29:53;9.55;;;6.70;;
51901;SDS011;37929;53.218;6.548;2023-05-15T08:32:19;8.95;;;6.88;;
51901;SDS011;37929;53.218;6.548;2023-05-15T08:34:45;9.38;;;7.72;;
51901;SDS011;37929;53.218;6.548;2023-05-15T08:37:11;10.43;;;8.23;;
51901;SDS011;37929;53.218;6.548;2023-05-15T08:39:36;10.85;;;7.88;;
51901;SDS011;37929;53.218;6.548;2023-05-15T08:42:23;10.68;;;7.82;;
51901;SDS011;37929;53.218;6.548;2023-05-15T08:44:51;12.50;;;7.90;;
51901;SDS011;37929;53.218;6.548;2023-05-15T08:47:18;10.38;;;8.00;;
51901;SDS011;37929;53.218;6.548;2023-05-15T08:52:29;9.45;;;7.25;;
51901;SDS011;37929;53.218;6.548;2023-05-15T08:54:56;9.60;;;7.47;;
51901;SDS011;37929;53.218;6.548;2023-05-15T08:57:23;8.98;;;7.45;;
51901;SDS011;37929;53.218;6.548;2023-05-15T08:59:50;10.07;;;7.20;;
51901;SDS011;37929;53.218;6.548;2023-05-15T09:02:18;10.73;;;7.60;;
51901;SDS011;37929;53.218;6.548;2023-05-15T09:04:44;7.95;;;6.93;;
51901;SDS011;37929;53.218;6.548;2023-05-15T09:07:11;9.30;;;6.68;;
51901;SDS011;37929;53.218;6.548;2023-05-15T09:09:36;8.45;;;6.57;;
51901;SDS011;37929;53.218;6.548;2023-05-15T09:12:03;9.77;;;7.40;;
51901;SDS011;37929;53.218;6.548;2023-05-15T09:14:31;8.40;;;6.72;;
51901;SDS011;37929;53.218;6.548;2023-05-15T09:16:56;10.60;;;6.68;;
51901;SDS011;37929;53.218;6.548;2023-05-15T09:19:25;10.20;;;7.72;;
51901;SDS011;37929;53.218;6.548;2023-05-15T09:21:51;8.77;;;7.22;;
51901;SDS011;37929;53.218;6.548;2023-05-15T09:24:23;10.30;;;7.50;;
51901;SDS011;37929;53.218;6.548;2023-05-15T09:27:07;9.77;;;7.18;;
51901;SDS011;37929;53.218;6.548;2023-05-15T09:29:35;10.15;;;6.68;;
51901;SDS011;37929;53.218;6.548;2023-05-15T09:32:02;10.80;;;7.47;;
51901;SDS011;37929;53.218;6.548;2023-05-15T09:34:31;8.93;;;7.68;;
51901;SDS011;37929;53.218;6.548;2023-05-15T09:36:59;8.35;;;6.80;;
51901;SDS011;37929;53.218;6.548;2023-05-15T09:39:26;10.13;;;7.38;;
51901;SDS011;37929;53.218;6.548;2023-05-15T09:41:52;9.73;;;7.60;;
51901;SDS011;37929;53.218;6.548;2023-05-15T09:44:19;11.30;;;8.23;;
51901;SDS011;37929;53.218;6.548;2023-05-15T09:46:49;10.38;;;7.78;;
51901;SDS011;37929;53.218;6.548;2023-05-15T09:49:15;10.23;;;7.50;;
51901;SDS011;37929;53.218;6.548;2023-05-15T09:51:42;9.82;;;7.57;;
51901;SDS011;37929;53.218;6.548;2023-05-15T09:54:27;9.57;;;6.63;;
51901;SDS011;37929;53.218;6.548;2023-05-15T09:56:54;8.95;;;6.68;;
51901;SDS011;37929;53.218;6.548;2023-05-15T09:59:21;10.38;;;7.88;;
51901;SDS011;37929;53.218;6.548;2023-05-15T10:01:47;8.98;;;6.70;;
51901;SDS011;37929;53.218;6.548;2023-05-15T10:04:14;7.07;;;5.97;;
51901;SDS011;37929;53.218;6.548;2023-05-15T10:06:47;10.75;;;6.93;;
51901;SDS011;37929;53.218;6.548;2023-05-15T10:09:13;8.93;;;6.90;;
51901;SDS011;37929;53.218;6.548;2023-05-15T10:11:40;9.77;;;7.20;;
51901;SDS011;37929;53.218;6.548;2023-05-15T10:14:11;8.85;;;6.65;;
51901;SDS011;37929;53.218;6.548;2023-05-15T10:16:38;8.25;;;6.30;;
51901;SDS011;37929;53.218;6.548;2023-05-15T10:19:06;7.78;;;6.35;;
51901;SDS011;37929;53.218;6.548;2023-05-15T10:21:36;10.57;;;6.68;;
51901;SDS011;37929;53.218;6.548;2023-05-15T10:24:06;10.57;;;7.07;;
51901;SDS011;37929;53.218;6.548;2023-05-15T10:26:37;8.65;;;7.18;;
51901;SDS011;37929;53.218;6.548;2023-05-15T10:29:10;9.52;;;7.07;;
51901;SDS011;37929;53.218;6.548;2023-05-15T10:31:38;10.23;;;6.93;;
51901;SDS011;37929;53.218;6.548;2023-05-15T10:34:05;9.68;;;7.15;;
51901;SDS011;37929;53.218;6.548;2023-05-15T10:36:32;7.55;;;6.57;;
51901;SDS011;37929;53.218;6.548;2023-05-15T10:38:59;11.52;;;6.95;;
51901;SDS011;37929;53.218;6.548;2023-05-15T10:41:26;9.32;;;6.90;;
51901;SDS011;37929;53.218;6.548;2023-05-15T10:43:54;17.17;;;8.55;;
51901;SDS011;37929;53.218;6.548;2023-05-15T10:46:29;12.18;;;7.50;;
51901;SDS011;37929;53.218;6.548;2023-05-15T10:48:58;9.97;;;7.53;;
51901;SDS011;37929;53.218;6.548;2023-05-15T10:51:26;10.68;;;7.25;;
51901;SDS011;37929;53.218;6.548;2023-05-15T10:54:00;9.48;;;7.38;;
51901;SDS011;37929;53.218;6.548;2023-05-15T10:56:31;11.10;;;7.53;;
51901;SDS011;37929;53.218;6.548;2023-05-15T10:59:03;10.52;;;8.05;;
51901;SDS011;37929;53.218;6.548;2023-05-15T11:04:08;9.05;;;6.90;;
51901;SDS011;37929;53.218;6.548;2023-05-15T11:06:36;8.98;;;6.70;;
51901;SDS011;37929;53.218;6.548;2023-05-15T11:14:22;7.65;;;6.63;;
51901;SDS011;37929;53.218;6.548;2023-05-15T11:19:21;8.80;;;6.88;;
51901;SDS011;37929;53.218;6.548;2023-05-15T11:24:31;8.82;;;6.35;;
51901;SDS011;37929;53.218;6.548;2023-05-15T11:27:11;6.97;;;6.25;;
51901;SDS011;37929;53.218;6.548;2023-05-15T11:30:01;7.82;;;6.57;;
51901;SDS011;37929;53.218;6.548;2023-05-15T11:32:47;8.45;;;6.97;;
51901;SDS011;37929;53.218;6.548;2023-05-15T11:35:40;8.93;;;6.38;;
51901;SDS011;37929;53.218;6.548;2023-05-15T11:40:53;7.85;;;6.70;;
51901;SDS011;37929;53.218;6.548;2023-05-15T11:43:28;9.05;;;6.53;;
51901;SDS011;37929;53.218;6.548;2023-05-15T11:48:22;8.68;;;7.00;;
51901;SDS011;37929;53.218;6.548;2023-05-15T11:50:49;9.82;;;6.90;;
51901;SDS011;37929;53.218;6.548;2023-05-15T11:53:17;7.43;;;6.65;;
51901;SDS011;37929;53.218;6.548;2023-05-15T11:55:44;8.95;;;7.93;;
51901;SDS011;37929;53.218;6.548;2023-05-15T11:58:16;8.02;;;6.75;;
51901;SDS011;37929;53.218;6.548;2023-05-15T12:00:43;9.10;;;7.25;;
51901;SDS011;37929;53.218;6.548;2023-05-15T12:03:31;9.85;;;6.97;;
51901;SDS011;37929;53.218;6.548;2023-05-15T12:06:00;7.95;;;6.50;;
51901;SDS011;37929;53.218;6.548;2023-05-15T12:08:30;10.48;;;7.28;;
51901;SDS011;37929;53.218;6.548;2023-05-15T12:11:00;10.18;;;7.68;;
51901;SDS011;37929;53.218;6.548;2023-05-15T12:13:27;8.80;;;6.80;;
51901;SDS011;37929;53.218;6.548;2023-05-15T12:15:54;9.75;;;7.30;;
51901;SDS011;37929;53.218;6.548;2023-05-15T12:18:21;9.07;;;7.00;;
51901;SDS011;37929;53.218;6.548;2023-05-15T12:20:46;8.00;;;5.88;;
51901;SDS011;37929;53.218;6.548;2023-05-15T12:23:15;7.55;;;6.20;;
51901;SDS011;37929;53.218;6.548;2023-05-15T12:25:42;8.20;;;6.65;;
51901;SDS011;37929;53.218;6.548;2023-05-15T12:28:08;10.18;;;7.43;;
51901;SDS011;37929;53.218;6.548;2023-05-15T12:30:36;7.88;;;6.90;;
51901;SDS011;37929;53.218;6.548;2023-05-15T12:33:05;8.90;;;6.32;;
51901;SDS011;37929;53.218;6.548;2023-05-15T12:35:32;7.95;;;6.22;;
51901;SDS011;37929;53.218;6.548;2023-05-15T12:38:03;7.20;;;5.40;;
51901;SDS011;37929;53.218;6.548;2023-05-15T12:40:33;9.25;;;6.72;;
51901;SDS011;37929;53.218;6.548;2023-05-15T12:43:04;8.75;;;7.05;;
51901;SDS011;37929;53.218;6.548;2023-05-15T12:45:31;9.18;;;7.88;;
51901;SDS011;37929;53.218;6.548;2023-05-15T12:47:59;9.23;;;6.70;;
51901;SDS011;37929;53.218;6.548;2023-05-15T12:50:25;9.82;;;7.68;;
51901;SDS011;37929;53.218;6.548;2023-05-15T12:52:55;10.63;;;8.02;;
51901;SDS011;37929;53.218;6.548;2023-05-15T12:57:50;8.27;;;7.03;;
51901;SDS011;37929;53.218;6.548;2023-05-15T13:00:32;7.78;;;5.93;;
51901;SDS011;37929;53.218;6.548;2023-05-15T13:03:00;9.05;;;7.05;;
51901;SDS011;37929;53.218;6.548;2023-05-15T13:05:26;10.73;;;6.72;;
51901;SDS011;37929;53.218;6.548;2023-05-15T13:07:53;8.45;;;6.30;;
51901;SDS011;37929;53.218;6.548;2023-05-15T13:10:22;6.90;;;5.78;;
51901;SDS011;37929;53.218;6.548;2023-05-15T13:12:49;7.25;;;5.20;;
51901;SDS011;37929;53.218;6.548;2023-05-15T13:17:59;6.75;;;5.43;;
51901;SDS011;37929;53.218;6.548;2023-05-15T13:20:48;8.95;;;5.50;;
51901;SDS011;37929;53.218;6.548;2023-05-15T13:23:17;7.53;;;5.40;;
51901;SDS011;37929;53.218;6.548;2023-05-15T13:25:44;7.85;;;5.40;;
51901;SDS011;37929;53.218;6.548;2023-05-15T13:28:10;7.25;;;5.47;;
51901;SDS011;37929;53.218;6.548;2023-05-15T13:30:37;7.00;;;5.72;;
51901;SDS011;37929;53.218;6.548;2023-05-15T13:33:07;7.15;;;5.65;;
51901;SDS011;37929;53.218;6.548;2023-05-15T13:35:34;6.97;;;5.35;;
51901;SDS011;37929;53.218;6.548;2023-05-15T13:38:00;6.95;;;5.45;;
51901;SDS011;37929;53.218;6.548;2023-05-15T13:40:26;8.32;;;5.57;;
51901;SDS011;37929;53.218;6.548;2023-05-15T13:42:52;7.93;;;5.80;;
51901;SDS011;37929;53.218;6.548;2023-05-15T13:45:18;7.05;;;5.72;;
51901;SDS011;37929;53.218;6.548;2023-05-15T13:47:44;9.07;;;7.25;;
51901;SDS011;37929;53.218;6.548;2023-05-15T13:50:11;8.07;;;6.38;;
51901;SDS011;37929;53.218;6.548;2023-05-15T13:52:38;9.93;;;6.82;;
51901;SDS011;37929;53.218;6.548;2023-05-15T13:55:04;6.68;;;5.97;;
51901;SDS011;37929;53.218;6.548;2023-05-15T13:57:31;7.65;;;6.13;;
51901;SDS011;37929;53.218;6.548;2023-05-15T13:59:57;7.47;;;5.85;;
51901;SDS011;37929;53.218;6.548;2023-05-15T14:02:23;8.02;;;6.30;;
51901;SDS011;37929;53.218;6.548;2023-05-15T14:04:51;7.00;;;5.57;;
51901;SDS011;37929;53.218;6.548;2023-05-15T14:07:17;7.75;;;6.32;;
51901;SDS011;37929;53.218;6.548;2023-05-15T14:09:43;7.32;;;5.40;;
51901;SDS011;37929;53.218;6.548;2023-05-15T14:12:10;8.40;;;5.70;;
51901;SDS011;37929;53.218;6.548;2023-05-15T14:14:36;8.63;;;6.07;;
51901;SDS011;37929;53.218;6.548;2023-05-15T14:17:02;6.97;;;5.35;;
51901;SDS011;37929;53.218;6.548;2023-05-15T14:19:28;7.43;;;5.40;;
51901;SDS011;37929;53.218;6.548;2023-05-15T14:21:54;6.82;;;4.85;;
51901;SDS011;37929;53.218;6.548;2023-05-15T14:24:19;6.70;;;4.53;;
51901;SDS011;37929;53.218;6.548;2023-05-15T14:26:45;5.63;;;4.75;;
51901;SDS011;37929;53.218;6.548;2023-05-15T14:29:11;6.60;;;5.15;;
51901;SDS011;37929;53.218;6.548;2023-05-15T14:31:37;8.10;;;5.32;;
51901;SDS011;37929;53.218;6.548;2023-05-15T14:34:02;7.28;;;5.10;;
51901;SDS011;37929;53.218;6.548;2023-05-15T14:36:30;7.57;;;5.55;;
51901;SDS011;37929;53.218;6.548;2023-05-15T14:38:55;6.50;;;5.00;;
51901;SDS011;37929;53.218;6.548;2023-05-15T14:41:21;6.68;;;5.05;;
51901;SDS011;37929;53.218;6.548;2023-05-15T14:43:47;6.45;;;4.93;;
51901;SDS011;37929;53.218;6.548;2023-05-15T14:46:13;6.55;;;4.82;;
51901;SDS011;37929;53.218;6.548;2023-05-15T14:48:38;7.43;;;5.25;;
51901;SDS011;37929;53.218;6.548;2023-05-15T14:51:04;5.63;;;4.53;;
51901;SDS011;37929;53.218;6.548;2023-05-15T14:53:30;5.78;;;4.15;;
51901;SDS011;37929;53.218;6.548;2023-05-15T14:55:56;9.20;;;5.13;;
51901;SDS011;37929;53.218;6.548;2023-05-15T14:58:23;6.20;;;4.07;;
51901;SDS011;37929;53.218;6.548;2023-05-15T15:00:49;5.32;;;3.90;;
51901;SDS011;37929;53.218;6.548;2023-05-15T15:03:14;7.53;;;4.25;;
51901;SDS011;37929;53.218;6.548;2023-05-15T15:05:40;5.00;;;4.20;;
51901;SDS011;37929;53.218;6.548;2023-05-15T15:08:07;5.07;;;3.95;;
51901;SDS011;37929;53.218;6.548;2023-05-15T15:10:34;7.25;;;4.60;;
51901;SDS011;37929;53.218;6.548;2023-05-15T15:13:01;6.13;;;4.43;;